Airport View

Enter AWOS ICAO identifier for current METAR.

ex. KFNL

KMWO 191935Z AUTO 30011G17KT 10SM OVC024 M09/M14 A3030 RMK AO2 T10931141

19 Jan 2020 19:51

Frequency: 120.025

Phone: 513-422-3505

Other Area AWOS: KMGY - KHAO - KOXD - KI19

TAF KDAY 191733Z 1918/2018 28014G22KT P6SM -SHSN OVC022 FM192300 28013KT P6SM OVC022 FM200400 32009KT P6SM BKN025 FM200900 33006KT P6SM SCT025 FM201500 36006KT P6SM SCT025